createdAt,value
2019-01-05T00:02:19.143Z,0.70
2019-01-05T00:05:44.594Z,0.60
2019-01-05T00:09:02.818Z,0.50
2019-01-05T00:12:30.709Z,0.50
2019-01-05T00:15:59.482Z,1.02
2019-01-05T00:19:20.805Z,0.60
2019-01-05T00:22:46.838Z,0.57
2019-01-05T00:26:11.825Z,0.60
2019-01-05T00:29:37.758Z,0.50
2019-01-05T00:32:57.630Z,0.70
2019-01-05T00:36:40.443Z,0.50
2019-01-05T00:40:00.662Z,0.70
2019-01-05T00:43:37.795Z,0.70
2019-01-05T00:46:59.279Z,0.60
2019-01-05T00:50:26.019Z,0.70
2019-01-05T00:54:02.645Z,0.70
2019-01-05T00:57:21.056Z,0.50
2019-01-05T01:00:43.585Z,0.50
2019-01-05T01:04:03.785Z,0.68
2019-01-05T01:07:27.469Z,0.50
2019-01-05T01:11:00.559Z,0.80
2019-01-05T01:14:42.454Z,0.62
2019-01-05T01:17:58.453Z,0.40
2019-01-05T01:21:11.367Z,0.60
2019-01-05T01:24:34.862Z,0.60
2019-01-05T01:27:56.265Z,0.60
2019-01-05T01:31:11.443Z,0.57
2019-01-05T01:34:50.457Z,0.40
2019-01-05T01:38:57.758Z,0.70
2019-01-05T01:42:26.502Z,0.50
2019-01-05T01:45:48.602Z,0.57
2019-01-05T01:49:10.338Z,0.60
2019-01-05T01:52:36.355Z,0.62
2019-01-05T01:55:58.899Z,0.60
2019-01-05T01:59:31.217Z,0.57
2019-01-05T02:02:52.442Z,0.40
2019-01-05T02:06:13.609Z,0.60
2019-01-05T02:09:33.711Z,0.50
2019-01-05T02:12:51.135Z,0.40
2019-01-05T02:16:20.609Z,0.50
2019-01-05T02:20:06.021Z,0.50
2019-01-05T02:24:13.915Z,0.55
2019-01-05T02:28:27.264Z,0.57
2019-01-05T02:32:19.923Z,0.70
2019-01-05T02:36:32.228Z,0.50
2019-01-05T02:40:25.795Z,0.50
2019-01-05T02:44:32.477Z,0.40
2019-01-05T02:48:38.141Z,0.53
2019-01-05T02:52:15.953Z,0.42
2019-01-05T02:56:32.402Z,0.47
2019-01-05T03:00:39.643Z,0.50
2019-01-05T03:04:32.665Z,0.40
2019-01-05T03:08:41.834Z,0.60
2019-01-05T03:12:31.647Z,0.60
2019-01-05T03:16:12.429Z,0.40
2019-01-05T03:20:04.521Z,0.55
2019-01-05T03:24:14.750Z,0.40
2019-01-05T03:28:07.688Z,0.45
2019-01-05T03:32:25.323Z,0.40
2019-01-05T03:36:46.315Z,0.45
2019-01-05T03:40:52.718Z,0.50
2019-01-05T03:44:57.061Z,0.40
2019-01-05T03:48:57.871Z,0.60
2019-01-05T03:53:08.610Z,0.47
2019-01-05T03:57:10.618Z,0.45
2019-01-05T04:01:22.579Z,0.40
2019-01-05T04:05:25.939Z,0.53
2019-01-05T04:09:50.730Z,0.30
2019-01-05T04:14:12.930Z,0.45
2019-01-05T04:18:19.803Z,0.37
2019-01-05T04:22:23.637Z,0.42
2019-01-05T04:26:33.735Z,0.40
2019-01-05T04:30:28.236Z,0.40
2019-01-05T04:34:43.797Z,0.50
2019-01-05T04:38:36.384Z,0.33
2019-01-05T04:42:35.400Z,0.30
2019-01-05T04:46:33.292Z,0.40
2019-01-05T04:50:15.494Z,0.50
2019-01-05T04:54:12.623Z,0.40
2019-01-05T04:57:57.224Z,0.30
2019-01-05T05:01:58.074Z,0.30
2019-01-05T05:06:06.174Z,0.30
2019-01-05T05:10:18.996Z,0.40
2019-01-05T05:14:09.675Z,0.40
2019-01-05T05:18:11.058Z,0.30
2019-01-05T05:22:21.436Z,0.47
2019-01-05T05:26:16.674Z,0.40
2019-01-05T05:30:12.626Z,0.47
2019-01-05T05:34:31.479Z,0.25
2019-01-05T05:38:17.125Z,0.30
2019-01-05T05:42:18.239Z,0.35
2019-01-05T05:45:59.461Z,0.30
2019-01-05T05:49:49.092Z,0.30
2019-01-05T05:53:44.415Z,0.37
2019-01-05T05:57:38.282Z,0.30
2019-01-05T06:01:40.541Z,0.37
2019-01-05T06:05:54.611Z,0.40
2019-01-05T06:09:55.017Z,0.42
2019-01-05T06:14:09.891Z,0.30
2019-01-05T06:17:51.293Z,0.30
2019-01-05T06:21:46.499Z,0.20
2019-01-05T06:25:40.574Z,0.30
2019-01-05T06:29:31.680Z,0.40
2019-01-05T06:33:56.527Z,0.30
2019-01-05T06:37:48.990Z,0.30
2019-01-05T06:41:41.247Z,0.30
2019-01-05T06:45:46.075Z,0.37
2019-01-05T06:50:23.334Z,0.30
2019-01-05T06:54:28.336Z,0.30
2019-01-05T06:58:12.841Z,0.30
2019-01-05T07:02:28.330Z,0.30
2019-01-05T07:06:33.370Z,0.30
2019-01-05T07:10:28.279Z,0.28
2019-01-05T07:14:31.903Z,0.40
2019-01-05T07:18:28.049Z,0.40
2019-01-05T07:22:43.885Z,0.30
2019-01-05T07:26:55.177Z,0.30
2019-01-05T07:30:50.524Z,0.30
2019-01-05T07:35:01.245Z,0.40
2019-01-05T07:39:21.297Z,0.30
2019-01-05T07:43:27.765Z,0.30
2019-01-05T07:47:41.327Z,0.30
2019-01-05T07:51:58.815Z,0.20
2019-01-05T07:55:56.664Z,0.30
2019-01-05T07:59:43.368Z,0.30
2019-01-05T08:03:58.054Z,0.30
2019-01-05T08:08:12.312Z,0.20
2019-01-05T08:12:28.087Z,0.30
2019-01-05T08:16:39.112Z,0.30
2019-01-05T08:20:29.644Z,0.30
2019-01-05T08:24:33.566Z,0.23
2019-01-05T08:28:40.674Z,0.30
2019-01-05T08:32:39.198Z,0.20
2019-01-05T08:36:35.621Z,0.30
2019-01-05T08:40:40.301Z,0.28
2019-01-05T08:44:46.782Z,0.33
2019-01-05T08:48:41.301Z,0.30
2019-01-05T08:52:49.501Z,0.30
2019-01-05T08:56:47.701Z,0.30
2019-01-05T09:01:06.557Z,0.20
2019-01-05T09:05:20.002Z,0.30
2019-01-05T09:09:16.856Z,0.30
2019-01-05T09:13:25.909Z,0.40
2019-01-05T09:17:48.853Z,0.30
2019-01-05T09:22:12.536Z,0.40
2019-01-05T09:25:56.513Z,0.30
2019-01-05T09:29:43.748Z,0.20
2019-01-05T09:33:51.743Z,0.30
2019-01-05T09:38:05.181Z,0.30
2019-01-05T09:41:59.579Z,0.40
2019-01-05T09:46:24.359Z,0.47
2019-01-05T09:50:13.037Z,0.40
2019-01-05T09:54:25.208Z,0.30
2019-01-05T09:58:35.415Z,0.20
2019-01-05T10:02:48.363Z,0.40
2019-01-05T10:07:22.078Z,0.30
2019-01-05T10:11:12.499Z,0.40
2019-01-05T10:15:11.632Z,1.12
2019-01-05T10:19:04.100Z,1.12
2019-01-05T10:23:09.635Z,1.27
2019-01-05T10:26:50.958Z,1.50
2019-01-05T10:30:50.285Z,1.30
2019-01-05T10:34:47.979Z,1.42
2019-01-05T10:38:57.164Z,1.10
2019-01-05T10:42:45.204Z,0.88
2019-01-05T10:46:37.376Z,0.88
2019-01-05T10:50:30.232Z,1.07
2019-01-05T10:54:24.807Z,1.02
2019-01-05T10:58:17.658Z,0.72
2019-01-05T11:02:24.252Z,0.80
2019-01-05T11:06:31.503Z,1.05
2019-01-05T11:10:52.695Z,0.95
2019-01-05T11:14:58.541Z,0.72
2019-01-05T11:18:57.826Z,0.93
2019-01-05T11:23:14.345Z,0.80
2019-01-05T11:27:15.957Z,0.80
2019-01-05T11:31:11.183Z,0.80
2019-01-05T11:35:19.752Z,0.68
2019-01-05T11:39:25.126Z,0.78
2019-01-05T11:43:33.517Z,1.00
2019-01-05T11:47:29.650Z,0.75
2019-01-05T11:51:27.454Z,1.15
2019-01-05T11:55:29.324Z,0.60
2019-01-05T11:59:12.352Z,0.82
2019-01-05T12:03:06.756Z,0.60
2019-01-05T12:07:24.699Z,0.70
2019-01-05T12:11:14.861Z,0.70
2019-01-05T12:15:20.405Z,0.80
2019-01-05T12:19:48.812Z,0.88
2019-01-05T12:23:41.407Z,0.70
2019-01-05T12:27:45.485Z,0.98
2019-01-05T12:31:57.832Z,0.80
2019-01-05T12:36:11.648Z,0.80
2019-01-05T12:40:10.884Z,0.80
2019-01-05T12:44:17.908Z,0.70
2019-01-05T12:48:22.358Z,1.62
2019-01-05T12:52:23.830Z,1.22
2019-01-05T12:56:29.495Z,0.85
2019-01-05T13:00:46.684Z,1.00
2019-01-05T13:04:58.769Z,0.88
2019-01-05T13:09:36.070Z,0.88
2019-01-05T13:13:51.191Z,0.80
2019-01-05T13:17:46.522Z,0.75
2019-01-05T13:21:48.948Z,0.80
2019-01-05T13:25:47.307Z,0.93
2019-01-05T13:30:11.704Z,1.17
2019-01-05T13:34:25.651Z,1.05
2019-01-05T13:38:54.435Z,0.72
2019-01-05T13:42:32.311Z,1.10
2019-01-05T13:46:31.631Z,0.70
2019-01-05T13:50:47.759Z,1.10
2019-01-05T13:54:16.463Z,0.80
2019-01-05T13:57:36.136Z,0.70
2019-01-05T14:00:56.252Z,0.70
2019-01-05T14:04:17.710Z,1.22
2019-01-05T14:07:39.255Z,0.70
2019-01-05T14:11:04.191Z,0.82
2019-01-05T14:14:25.963Z,0.90
2019-01-05T14:17:43.644Z,1.30
2019-01-05T14:21:10.026Z,0.85
2019-01-05T14:24:48.558Z,0.80
2019-01-05T14:28:10.811Z,1.00
2019-01-05T14:31:32.407Z,0.60
2019-01-05T14:34:58.290Z,1.00
2019-01-05T14:38:17.147Z,0.70
2019-01-05T14:41:38.643Z,1.00
2019-01-05T14:45:00.171Z,1.00
2019-01-05T14:48:22.775Z,0.72
2019-01-05T14:51:51.459Z,0.60
2019-01-05T14:55:23.204Z,0.90
2019-01-05T14:58:48.839Z,0.72
2019-01-05T15:02:26.411Z,1.07
2019-01-05T15:05:55.199Z,0.90
2019-01-05T15:09:16.646Z,0.60
2019-01-05T15:12:39.033Z,0.70
2019-01-05T15:16:00.340Z,0.70
2019-01-05T15:19:21.877Z,0.90
2019-01-05T15:22:43.276Z,0.60
2019-01-05T15:26:11.039Z,0.70
2019-01-05T15:29:33.639Z,0.75
2019-01-05T15:32:56.402Z,0.70
2019-01-05T15:36:27.840Z,0.78
2019-01-05T15:40:05.978Z,0.90
2019-01-05T15:43:27.646Z,0.70
2019-01-05T15:46:48.081Z,0.60
2019-01-05T15:50:05.170Z,0.80
2019-01-05T15:53:31.350Z,0.88
2019-01-05T15:56:52.632Z,0.70
2019-01-05T16:00:23.300Z,1.00
2019-01-05T16:03:42.918Z,0.78
2019-01-05T16:07:04.342Z,0.80
2019-01-05T16:10:23.261Z,0.80
2019-01-05T16:13:45.475Z,0.70
2019-01-05T16:17:07.340Z,0.88
2019-01-05T16:20:24.757Z,0.90
2019-01-05T16:23:46.343Z,0.65
2019-01-05T16:27:05.360Z,0.68
2019-01-05T16:30:34.942Z,0.82
2019-01-05T16:33:54.982Z,0.60
2019-01-05T16:37:29.707Z,0.65
2019-01-05T16:40:46.387Z,0.82
2019-01-05T16:44:09.618Z,0.65
2019-01-05T16:47:34.261Z,0.90
2019-01-05T16:51:12.132Z,0.75
2019-01-05T16:54:39.731Z,0.80
2019-01-05T16:58:21.010Z,0.70
2019-01-05T17:01:42.027Z,0.85
2019-01-05T17:05:01.847Z,0.80
2019-01-05T17:08:18.129Z,0.65
2019-01-05T17:11:40.669Z,0.68
2019-01-05T17:15:16.741Z,0.70
2019-01-05T17:18:46.853Z,0.70
2019-01-05T17:22:12.354Z,0.98
2019-01-05T17:25:33.853Z,0.70
2019-01-05T17:29:07.725Z,0.80
2019-01-05T17:32:30.365Z,0.60
2019-01-05T17:35:51.881Z,0.85
2019-01-05T17:39:09.513Z,0.90
2019-01-05T17:42:32.127Z,0.98
2019-01-05T17:46:02.597Z,0.90
2019-01-05T17:49:23.870Z,0.80
2019-01-05T17:52:52.576Z,0.62
2019-01-05T17:56:16.162Z,0.93
2019-01-05T17:59:44.061Z,0.72
2019-01-05T18:03:18.994Z,0.78
2019-01-05T18:06:35.249Z,0.78
2019-01-05T18:09:57.534Z,0.72
2019-01-05T18:13:19.767Z,0.88
2019-01-05T18:16:46.218Z,0.72
2019-01-05T18:20:07.213Z,0.78
2019-01-05T18:23:35.800Z,0.70
2019-01-05T18:27:04.248Z,0.70
2019-01-05T18:30:33.851Z,0.72
2019-01-05T18:34:04.259Z,0.70
2019-01-05T18:37:26.911Z,0.70
2019-01-05T18:40:55.010Z,0.75
2019-01-05T18:44:14.861Z,0.70
2019-01-05T18:47:33.778Z,0.50
2019-01-05T18:51:06.561Z,0.70
2019-01-05T18:54:28.898Z,0.62
2019-01-05T18:57:55.277Z,0.80
2019-01-05T19:01:22.270Z,0.70
2019-01-05T19:05:00.578Z,0.98
2019-01-05T19:08:26.227Z,0.90
2019-01-05T19:12:08.566Z,0.90
2019-01-05T19:15:26.363Z,1.15
2019-01-05T19:18:57.920Z,1.00
2019-01-05T19:22:19.428Z,0.80
2019-01-05T19:25:32.940Z,0.80
2019-01-05T19:29:05.987Z,0.78
2019-01-05T19:32:40.757Z,0.90
2019-01-05T19:36:07.828Z,0.70
2019-01-05T19:39:43.576Z,0.60
2019-01-05T19:43:16.041Z,0.72
2019-01-05T19:46:50.730Z,0.70
2019-01-05T19:50:09.446Z,0.75
2019-01-05T19:53:35.048Z,0.70
2019-01-05T19:56:56.533Z,0.82
2019-01-05T20:00:18.641Z,0.68
2019-01-05T20:03:47.125Z,0.80
2019-01-05T20:07:17.843Z,0.70
2019-01-05T20:10:47.632Z,0.80
2019-01-05T20:14:20.488Z,0.50
2019-01-05T20:17:43.361Z,0.70
2019-01-05T20:21:15.760Z,0.70
2019-01-05T20:24:37.287Z,0.78
2019-01-05T20:27:58.589Z,0.57
2019-01-05T20:31:13.495Z,0.85
2019-01-05T20:34:37.266Z,0.60
2019-01-05T20:37:58.889Z,0.62
2019-01-05T20:41:24.562Z,0.70
2019-01-05T20:44:43.592Z,0.60
2019-01-05T20:48:07.245Z,0.70
2019-01-05T20:51:29.491Z,0.70
2019-01-05T20:54:51.057Z,0.75
2019-01-05T20:58:32.422Z,0.60
2019-01-05T21:01:53.654Z,0.70
2019-01-05T21:05:29.355Z,0.75
2019-01-05T21:08:50.683Z,0.90
2019-01-05T21:12:12.268Z,0.53
2019-01-05T21:15:34.582Z,0.90
2019-01-05T21:18:56.098Z,0.70
2019-01-05T21:22:12.720Z,0.55
2019-01-05T21:25:44.979Z,0.62
2019-01-05T21:29:22.871Z,0.50
2019-01-05T21:33:00.504Z,0.50
2019-01-05T21:36:21.259Z,0.70
2019-01-05T21:39:51.621Z,0.57
2019-01-05T21:43:12.913Z,0.70
2019-01-05T21:46:39.376Z,0.60
2019-01-05T21:50:07.780Z,0.50
2019-01-05T21:53:43.610Z,0.42
2019-01-05T21:56:59.612Z,0.47
2019-01-05T22:00:21.315Z,0.60
2019-01-05T22:03:40.911Z,0.50
2019-01-05T22:07:15.571Z,0.70
2019-01-05T22:10:44.138Z,0.60
2019-01-05T22:14:01.459Z,0.80
2019-01-05T22:17:24.008Z,0.60
2019-01-05T22:20:43.597Z,0.50
2019-01-05T22:24:03.066Z,0.60
2019-01-05T22:27:38.412Z,0.60
2019-01-05T22:31:02.701Z,0.70
2019-01-05T22:34:28.276Z,0.60
2019-01-05T22:37:45.539Z,0.70
2019-01-05T22:41:20.834Z,0.60
2019-01-05T22:44:54.079Z,0.62
2019-01-05T22:48:14.596Z,0.68
2019-01-05T22:51:36.306Z,0.60
2019-01-05T22:55:11.238Z,0.50
2019-01-05T22:58:33.909Z,0.60
2019-01-05T23:01:57.065Z,0.50
2019-01-05T23:05:36.004Z,0.50
2019-01-05T23:09:13.589Z,0.60
2019-01-05T23:12:34.718Z,0.47
2019-01-05T23:15:56.338Z,0.60
2019-01-05T23:19:18.941Z,0.57
2019-01-05T23:22:47.272Z,0.45
2019-01-05T23:26:11.455Z,0.50
2019-01-05T23:29:30.205Z,0.50
2019-01-05T23:33:03.191Z,0.40
2019-01-05T23:36:44.385Z,0.55
2019-01-05T23:40:16.652Z,0.50
2019-01-05T23:43:40.024Z,0.60
2019-01-05T23:47:02.720Z,0.45
2019-01-05T23:50:34.735Z,0.50
2019-01-05T23:53:55.245Z,0.35
2019-01-05T23:57:19.340Z,0.50
